createdAt,value
2016-12-16T00:00:13.733Z,80.83
2016-12-16T00:01:23.218Z,81.3
2016-12-16T00:02:33.000Z,81.21
2016-12-16T00:03:42.615Z,81.17
2016-12-16T00:04:52.424Z,80.93
2016-12-16T00:06:01.903Z,81.26
2016-12-16T00:07:11.700Z,80.93
2016-12-16T00:08:21.532Z,80.69
2016-12-16T00:09:31.334Z,80.69
2016-12-16T00:10:41.147Z,80.88
2016-12-16T00:11:50.702Z,80.98
2016-12-16T00:13:00.284Z,81.45
2016-12-16T00:14:10.151Z,81.45
2016-12-16T00:15:19.968Z,81.17
2016-12-16T00:16:29.571Z,81.36
2016-12-16T00:17:39.192Z,80.79
2016-12-16T00:18:48.701Z,80.79
2016-12-16T00:19:58.492Z,81.64
2016-12-16T00:21:07.657Z,81.74
2016-12-16T00:22:17.505Z,81.26
2016-12-16T00:23:27.298Z,81.45
2016-12-16T00:24:36.896Z,81.26
2016-12-16T00:25:46.712Z,81.36
2016-12-16T00:26:55.873Z,81.49
2016-12-16T00:28:05.034Z,81.45
2016-12-16T00:29:14.870Z,81.36
2016-12-16T00:30:24.046Z,81.02
2016-12-16T00:31:33.532Z,80.83
2016-12-16T00:32:42.728Z,81.21
2016-12-16T00:33:52.601Z,81.12
2016-12-16T00:35:02.088Z,80.83
2016-12-16T00:36:11.891Z,80.93
2016-12-16T00:37:21.701Z,80.83
2016-12-16T00:38:31.165Z,80.93
2016-12-16T00:39:40.677Z,80.55
2016-12-16T00:40:49.534Z,80.74
2016-12-16T00:41:59.485Z,80.74
2016-12-16T00:43:09.262Z,80.74
2016-12-16T00:44:18.816Z,80.93
2016-12-16T00:45:28.307Z,80.83
2016-12-16T00:46:38.089Z,80.74
2016-12-16T00:47:47.599Z,80.93
2016-12-16T00:48:57.405Z,80.93
2016-12-16T00:50:06.879Z,81.02
2016-12-16T00:51:16.580Z,80.83
2016-12-16T00:52:26.401Z,80.64
2016-12-16T00:53:35.588Z,80.74
2016-12-16T00:54:45.440Z,80.74
2016-12-16T00:55:55.136Z,80.83
2016-12-16T00:57:04.628Z,80.55
2016-12-16T00:58:14.141Z,80.74
2016-12-16T00:59:23.538Z,80.17
2016-12-16T01:00:33.068Z,80.36
2016-12-16T01:01:43.168Z,80.45
2016-12-16T01:02:52.641Z,80.26
2016-12-16T01:04:02.460Z,80.26
2016-12-16T01:05:11.963Z,80.36
2016-12-16T01:06:21.508Z,80.45
2016-12-16T01:07:31.346Z,80.17
2016-12-16T01:08:41.223Z,80.26
2016-12-16T01:09:51.064Z,80.26
2016-12-16T01:11:00.326Z,80.45
2016-12-16T01:12:09.843Z,80.26
2016-12-16T01:13:19.635Z,80.26
2016-12-16T01:14:29.430Z,80.26
2016-12-16T01:15:39.244Z,80.45
2016-12-16T01:16:48.427Z,80.55
2016-12-16T01:17:58.043Z,80.26
2016-12-16T01:19:07.523Z,80.26
2016-12-16T01:20:17.302Z,80.45
2016-12-16T01:21:26.475Z,80.45
2016-12-16T01:22:35.945Z,80.26
2016-12-16T01:23:45.476Z,80.55
2016-12-16T01:24:55.244Z,80.74
2016-12-16T01:26:04.787Z,80.36
2016-12-16T01:27:13.944Z,80.55
2016-12-16T01:28:23.445Z,81.02
2016-12-16T01:29:33.256Z,81.02
2016-12-16T01:30:42.735Z,80.74
2016-12-16T01:31:52.601Z,80.83
2016-12-16T01:33:02.406Z,80.55
2016-12-16T01:34:11.958Z,80.55
2016-12-16T01:35:21.923Z,80.74
2016-12-16T01:36:31.123Z,80.93
2016-12-16T01:37:40.937Z,80.64
2016-12-16T01:38:50.716Z,80.74
2016-12-16T01:40:00.199Z,80.83
2016-12-16T01:41:09.705Z,80.74
2016-12-16T01:42:19.178Z,80.64
2016-12-16T01:43:28.691Z,80.74
2016-12-16T01:44:37.857Z,80.93
2016-12-16T01:45:47.637Z,81.12
2016-12-16T01:46:57.409Z,80.93
2016-12-16T01:48:07.230Z,80.93
2016-12-16T01:49:16.750Z,80.55
2016-12-16T01:50:26.254Z,80.74
2016-12-16T01:51:36.105Z,80.74
2016-12-16T01:52:45.601Z,80.64
2016-12-16T01:53:54.761Z,80.55
2016-12-16T01:55:04.682Z,80.74
2016-12-16T01:56:14.208Z,80.74
2016-12-16T01:57:24.002Z,80.74
2016-12-16T01:58:33.529Z,81.21
2016-12-16T01:59:43.359Z,81.02
2016-12-16T02:00:53.167Z,81.21
2016-12-16T02:02:02.657Z,81.4
2016-12-16T02:03:11.832Z,81.4
2016-12-16T02:04:21.626Z,81.12
2016-12-16T02:05:31.468Z,80.93
2016-12-16T02:06:40.991Z,81.12
2016-12-16T02:07:50.760Z,81.21
2016-12-16T02:08:59.947Z,80.74
2016-12-16T02:10:09.804Z,81.12
2016-12-16T02:11:19.619Z,81.12
2016-12-16T02:12:29.101Z,81.3
2016-12-16T02:13:38.263Z,81.12
2016-12-16T02:14:48.059Z,81.21
2016-12-16T02:15:57.853Z,81.21
2016-12-16T02:17:07.133Z,80.93
2016-12-16T02:18:16.913Z,80.83
2016-12-16T02:19:26.434Z,81.02
2016-12-16T02:20:36.257Z,80.93
2016-12-16T02:21:46.073Z,81.02
2016-12-16T02:22:55.887Z,81.49
2016-12-16T02:24:05.365Z,81.49
2016-12-16T02:25:15.137Z,81.59
2016-12-16T02:26:24.768Z,81.49
2016-12-16T02:27:34.631Z,81.4
2016-12-16T02:28:44.157Z,81.3
2016-12-16T02:29:53.667Z,81.49
2016-12-16T02:31:03.137Z,81.21
2016-12-16T02:32:12.372Z,81.4
2016-12-16T02:33:22.161Z,81.49
2016-12-16T02:34:31.733Z,81.49
2016-12-16T02:35:41.533Z,81.3
2016-12-16T02:36:51.423Z,81.21
2016-12-16T02:38:01.208Z,81.3
2016-12-16T02:39:11.023Z,81.4
2016-12-16T02:40:20.884Z,81.49
2016-12-16T02:41:30.714Z,81.4
2016-12-16T02:42:40.687Z,81.4
2016-12-16T02:43:50.185Z,81.4
2016-12-16T02:44:59.641Z,81.49
2016-12-16T02:46:09.253Z,80.74
2016-12-16T02:47:19.098Z,81.21
2016-12-16T02:48:28.591Z,81.12
2016-12-16T02:49:38.442Z,81.12
2016-12-16T02:50:48.212Z,81.21
2016-12-16T02:51:58.049Z,81.12
2016-12-16T02:53:07.523Z,81.12
2016-12-16T02:54:17.312Z,80.93
2016-12-16T02:55:27.098Z,80.93
2016-12-16T02:56:36.578Z,80.93
2016-12-16T02:57:46.375Z,81.12
2016-12-16T02:58:56.158Z,80.83
2016-12-16T03:00:05.638Z,81.21
2016-12-16T03:01:15.478Z,81.12
2016-12-16T03:02:25.317Z,81.12
2016-12-16T03:03:34.973Z,81.21
2016-12-16T03:04:44.485Z,81.21
2016-12-16T03:05:54.399Z,81.12
2016-12-16T03:07:03.912Z,81.12
2016-12-16T03:08:13.383Z,80.93
2016-12-16T03:09:23.205Z,81.21
2016-12-16T03:10:33.022Z,81.02
2016-12-16T03:11:42.490Z,81.21
2016-12-16T03:12:51.674Z,80.93
2016-12-16T03:14:01.455Z,80.74
2016-12-16T03:15:10.934Z,81.59
2016-12-16T03:16:20.430Z,81.68
2016-12-16T03:17:30.234Z,81.59
2016-12-16T03:18:39.701Z,81.21
2016-12-16T03:19:49.523Z,81.21
2016-12-16T03:20:58.708Z,81.49
2016-12-16T03:22:08.494Z,81.68
2016-12-16T03:23:18.303Z,81.02
2016-12-16T03:24:28.085Z,81.59
2016-12-16T03:25:37.868Z,81.68
2016-12-16T03:26:47.359Z,81.49
2016-12-16T03:27:56.863Z,81.49
2016-12-16T03:29:06.651Z,81.59
2016-12-16T03:30:16.171Z,81.3
2016-12-16T03:31:25.673Z,81.02
2016-12-16T03:32:35.446Z,80.93
2016-12-16T03:33:45.274Z,81.21
2016-12-16T03:34:55.098Z,81.12
2016-12-16T03:36:04.872Z,81.12
2016-12-16T03:37:14.645Z,81.21
2016-12-16T03:38:24.436Z,81.02
2016-12-16T03:39:34.216Z,81.21
2016-12-16T03:40:44.017Z,81.21
2016-12-16T03:41:53.793Z,81.02
2016-12-16T03:43:03.296Z,81.21
2016-12-16T03:44:13.120Z,81.21
2016-12-16T03:45:21.991Z,81.12
2016-12-16T03:46:31.768Z,81.21
2016-12-16T03:47:41.333Z,80.74
2016-12-16T03:48:50.819Z,80.93
2016-12-16T03:50:00.262Z,80.83
2016-12-16T03:51:10.027Z,81.21
2016-12-16T03:52:19.663Z,81.12
2016-12-16T03:53:28.849Z,81.21
2016-12-16T03:54:38.351Z,81.12
2016-12-16T03:55:48.161Z,81.21
2016-12-16T03:56:57.319Z,81.21
2016-12-16T03:58:06.500Z,81.02
2016-12-16T03:59:16.527Z,81.02
2016-12-16T04:00:26.315Z,80.74
2016-12-16T04:01:36.002Z,81.02
2016-12-16T04:02:45.784Z,80.83
2016-12-16T04:03:55.596Z,81.12
2016-12-16T04:05:05.391Z,80.83
2016-12-16T04:06:15.176Z,80.93
2016-12-16T04:07:24.386Z,80.93
2016-12-16T04:08:34.166Z,80.83
2016-12-16T04:09:43.938Z,80.83
2016-12-16T04:10:53.724Z,80.74
2016-12-16T04:12:03.558Z,80.83
2016-12-16T04:13:13.362Z,80.93
2016-12-16T04:14:23.169Z,80.93
2016-12-16T04:15:32.963Z,81.49
2016-12-16T04:16:42.161Z,81.49
2016-12-16T04:17:51.942Z,81.49
2016-12-16T04:19:01.725Z,81.49
2016-12-16T04:20:10.900Z,81.4
2016-12-16T04:21:20.491Z,81.4
2016-12-16T04:22:29.656Z,81.3
2016-12-16T04:23:39.441Z,81.21
2016-12-16T04:24:49.228Z,81.4
2016-12-16T04:25:59.057Z,81.4
2016-12-16T04:27:08.581Z,81.4
2016-12-16T04:28:18.414Z,81.21
2016-12-16T04:29:28.219Z,81.68
2016-12-16T04:30:37.083Z,81.4
2016-12-16T04:31:46.888Z,81.21
2016-12-16T04:32:56.399Z,81.21
2016-12-16T04:34:06.196Z,81.68
2016-12-16T04:35:16.035Z,81.21
2016-12-16T04:36:25.523Z,81.21
2016-12-16T04:37:35.324Z,81.4
2016-12-16T04:38:45.177Z,81.4
2016-12-16T04:39:54.656Z,81.21
2016-12-16T04:41:03.845Z,81.3
2016-12-16T04:42:13.787Z,81.4
2016-12-16T04:43:23.582Z,81.4
2016-12-16T04:44:33.392Z,81.21
2016-12-16T04:45:43.221Z,81.49
2016-12-16T04:46:52.754Z,81.3
2016-12-16T04:48:02.531Z,81.3
2016-12-16T04:49:12.017Z,81.59
2016-12-16T04:50:21.497Z,81.4
2016-12-16T04:51:31.331Z,81.49
2016-12-16T04:52:40.298Z,81.21
2016-12-16T04:53:50.091Z,80.64
2016-12-16T04:54:59.578Z,80.74
2016-12-16T04:56:09.050Z,81.12
2016-12-16T04:57:18.240Z,80.74
2016-12-16T04:58:28.058Z,80.93
2016-12-16T04:59:37.547Z,81.02
2016-12-16T05:00:47.357Z,81.68
2016-12-16T05:01:57.163Z,81.49
2016-12-16T05:03:06.946Z,81.3
2016-12-16T05:04:16.720Z,81.21
2016-12-16T05:05:25.897Z,81.3
2016-12-16T05:06:35.394Z,80.83
2016-12-16T05:07:45.033Z,81.49
2016-12-16T05:08:54.507Z,81.02
2016-12-16T05:10:03.994Z,80.93
2016-12-16T05:11:13.507Z,81.02
2016-12-16T05:12:23.316Z,80.93
2016-12-16T05:13:33.106Z,80.93
2016-12-16T05:14:42.274Z,81.02
2016-12-16T05:15:51.464Z,81.02
2016-12-16T05:17:00.962Z,81.77
2016-12-16T05:18:10.637Z,81.4
2016-12-16T05:19:20.437Z,81.02
2016-12-16T05:20:29.970Z,81.12
2016-12-16T05:21:39.752Z,81.12
2016-12-16T05:22:49.262Z,81.12
2016-12-16T05:23:59.067Z,81.21
2016-12-16T05:25:07.931Z,80.93
2016-12-16T05:26:17.620Z,81.21
2016-12-16T05:27:27.432Z,80.83
2016-12-16T05:28:36.933Z,81.02
2016-12-16T05:29:46.176Z,81.68
2016-12-16T05:30:55.964Z,81.49
2016-12-16T05:32:05.768Z,81.68
2016-12-16T05:33:15.560Z,81.21
2016-12-16T05:34:25.042Z,81.49
2016-12-16T05:35:34.523Z,80.64
2016-12-16T05:36:44.041Z,81.02
2016-12-16T05:37:53.515Z,81.4
2016-12-16T05:39:02.990Z,81.49
2016-12-16T05:40:12.994Z,81.49
2016-12-16T05:41:22.490Z,81.49
2016-12-16T05:42:31.676Z,80.83
2016-12-16T05:43:41.467Z,81.02
2016-12-16T05:44:51.251Z,80.74
2016-12-16T05:46:00.756Z,81.49
2016-12-16T05:47:10.708Z,81.21
2016-12-16T05:48:20.511Z,81.3
2016-12-16T05:49:30.391Z,80.83
2016-12-16T05:50:40.194Z,81.12
2016-12-16T05:51:49.347Z,81.21
2016-12-16T05:52:58.226Z,81.02
2016-12-16T05:54:07.743Z,81.12
2016-12-16T05:55:17.552Z,81.21
2016-12-16T05:56:27.042Z,81.02
2016-12-16T05:57:36.839Z,81.68
2016-12-16T05:58:46.305Z,81.49
2016-12-16T05:59:55.890Z,81.49
2016-12-16T06:01:05.689Z,81.59
2016-12-16T06:02:15.481Z,81.12
2016-12-16T06:03:24.635Z,80.83
2016-12-16T06:04:34.425Z,80.83
2016-12-16T06:05:43.898Z,81.68
2016-12-16T06:06:53.701Z,81.02
2016-12-16T06:08:03.013Z,81.02
2016-12-16T06:09:12.497Z,80.83
2016-12-16T06:10:22.384Z,80.83
2016-12-16T06:11:31.882Z,81.02
2016-12-16T06:12:41.681Z,80.93
2016-12-16T06:13:51.179Z,81.12
2016-12-16T06:15:00.412Z,80.93
2016-12-16T06:16:09.942Z,80.93
2016-12-16T06:17:19.751Z,80.74
2016-12-16T06:18:29.522Z,80.74
2016-12-16T06:19:39.325Z,81.49
2016-12-16T06:20:49.110Z,81.3
2016-12-16T06:21:58.277Z,81.3
2016-12-16T06:23:08.064Z,81.4
2016-12-16T06:24:17.370Z,81.49
2016-12-16T06:25:27.167Z,81.4
2016-12-16T06:26:36.991Z,81.3
2016-12-16T06:27:46.801Z,81.68
2016-12-16T06:28:56.591Z,81.68
2016-12-16T06:30:06.220Z,81.3
2016-12-16T06:31:16.025Z,81.49
2016-12-16T06:32:25.846Z,81.87
2016-12-16T06:33:35.670Z,81.4
2016-12-16T06:34:45.523Z,81.4
2016-12-16T06:35:55.138Z,81.68
2016-12-16T06:37:04.614Z,81.4
2016-12-16T06:38:14.175Z,81.12
2016-12-16T06:39:23.644Z,81.68
2016-12-16T06:40:32.807Z,81.49
2016-12-16T06:41:42.287Z,81.12
2016-12-16T06:42:51.471Z,81.21
2016-12-16T06:44:00.957Z,81.21
2016-12-16T06:45:10.889Z,81.12
2016-12-16T06:46:20.058Z,81.59
2016-12-16T06:47:29.846Z,81.4
2016-12-16T06:48:39.736Z,81.4
2016-12-16T06:49:49.534Z,81.4
2016-12-16T06:50:59.012Z,81.4
2016-12-16T06:52:08.787Z,81.77
2016-12-16T06:53:18.570Z,81.49
2016-12-16T06:54:28.200Z,81.4
2016-12-16T06:55:37.458Z,81.4
2016-12-16T06:56:46.934Z,81.49
2016-12-16T06:57:56.723Z,81.21
2016-12-16T06:59:06.504Z,81.59
2016-12-16T07:00:16.300Z,81.68
2016-12-16T07:01:25.778Z,81.21
2016-12-16T07:02:35.561Z,81.4
2016-12-16T07:03:45.063Z,81.21
2016-12-16T07:04:54.701Z,81.77
2016-12-16T07:06:04.510Z,82.25
2016-12-16T07:07:13.710Z,81.59
2016-12-16T07:08:23.499Z,81.68
2016-12-16T07:09:33.007Z,81.49
2016-12-16T07:10:42.804Z,81.59
2016-12-16T07:11:52.393Z,81.49
2016-12-16T07:13:01.909Z,81.49
2016-12-16T07:14:10.768Z,81.59
2016-12-16T07:15:20.627Z,81.59
2016-12-16T07:16:30.424Z,81.77
2016-12-16T07:17:39.903Z,82.15
2016-12-16T07:18:49.717Z,81.96
2016-12-16T07:19:59.498Z,82.15
2016-12-16T07:21:09.283Z,81.77
2016-12-16T07:22:18.851Z,81.77
2016-12-16T07:23:28.735Z,81.87
2016-12-16T07:24:38.534Z,81.96
2016-12-16T07:25:48.329Z,81.77
2016-12-16T07:26:58.126Z,82.15
2016-12-16T07:28:07.910Z,81.77
2016-12-16T07:29:17.395Z,81.96
2016-12-16T07:30:27.187Z,82.06
2016-12-16T07:31:36.875Z,81.49
2016-12-16T07:32:46.662Z,81.3
2016-12-16T07:33:55.826Z,81.59
2016-12-16T07:35:05.605Z,81.21
2016-12-16T07:36:15.081Z,81.12
2016-12-16T07:37:24.911Z,81.4
2016-12-16T07:38:34.908Z,81.49
2016-12-16T07:39:44.699Z,81.4
2016-12-16T07:40:54.486Z,80.93
2016-12-16T07:42:04.029Z,81.21
2016-12-16T07:43:13.939Z,80.83
2016-12-16T07:44:23.715Z,80.83
2016-12-16T07:45:33.280Z,80.64
2016-12-16T07:46:42.874Z,81.77
2016-12-16T07:47:52.712Z,81.3
2016-12-16T07:49:01.877Z,81.68
2016-12-16T07:50:11.704Z,81.49
2016-12-16T07:51:21.486Z,81.68
2016-12-16T07:52:30.953Z,81.68
2016-12-16T07:53:40.426Z,81.59
2016-12-16T07:54:50.285Z,81.4
2016-12-16T07:55:59.744Z,81.4
2016-12-16T07:57:09.573Z,81.49
2016-12-16T07:58:19.068Z,81.21
2016-12-16T07:59:28.537Z,81.49
2016-12-16T08:00:38.009Z,81.49
2016-12-16T08:01:47.491Z,81.21
2016-12-16T08:02:57.291Z,80.74
2016-12-16T08:04:07.132Z,80.74
2016-12-16T08:05:16.371Z,80.74
2016-12-16T08:06:26.226Z,81.12
2016-12-16T08:07:36.068Z,80.83
2016-12-16T08:08:45.610Z,80.74
2016-12-16T08:09:55.147Z,80.93
2016-12-16T08:11:04.420Z,80.74
2016-12-16T08:12:14.318Z,80.26
2016-12-16T08:13:23.828Z,80.26
2016-12-16T08:14:33.317Z,80.36
2016-12-16T08:15:42.928Z,80.83
2016-12-16T08:16:52.754Z,80.83
2016-12-16T08:18:02.546Z,81.02
2016-12-16T08:19:12.327Z,80.36
2016-12-16T08:20:22.184Z,80.45
2016-12-16T08:21:31.675Z,81.12
2016-12-16T08:22:40.995Z,80.07
2016-12-16T08:23:50.483Z,81.02
2016-12-16T08:24:59.344Z,80.74
2016-12-16T08:26:09.131Z,80.64
2016-12-16T08:27:18.931Z,80.07
2016-12-16T08:28:28.721Z,80.07
2016-12-16T08:29:37.921Z,80.26
2016-12-16T08:30:47.719Z,80.36
2016-12-16T08:31:57.507Z,80.26
2016-12-16T08:33:07.298Z,80.45
2016-12-16T08:34:17.071Z,80.17
2016-12-16T08:35:26.862Z,80.36
2016-12-16T08:36:36.362Z,80.45
2016-12-16T08:37:45.979Z,80.17
2016-12-16T08:38:55.464Z,80.26
2016-12-16T08:40:04.949Z,80.36
2016-12-16T08:41:14.427Z,80.45
2016-12-16T08:42:23.912Z,80.36
2016-12-16T08:43:33.419Z,80.45
2016-12-16T08:44:42.585Z,80.45
2016-12-16T08:45:52.190Z,80.45
2016-12-16T08:47:01.678Z,79.88
2016-12-16T08:48:11.459Z,79.88
2016-12-16T08:49:21.269Z,80.36
2016-12-16T08:50:30.432Z,80.45
2016-12-16T08:51:39.969Z,80.26
2016-12-16T08:52:49.145Z,80.17
2016-12-16T08:53:58.613Z,80.55
2016-12-16T08:55:08.124Z,80.45
2016-12-16T08:56:17.935Z,80.45
2016-12-16T08:57:27.107Z,80.07
2016-12-16T08:58:36.619Z,80.07
2016-12-16T08:59:46.132Z,79.98
2016-12-16T09:00:56.008Z,79.98
2016-12-16T09:02:05.804Z,80.45
2016-12-16T09:03:15.588Z,80.55
2016-12-16T09:04:25.415Z,80.55
2016-12-16T09:05:34.900Z,80.45
2016-12-16T09:06:44.956Z,79.79
2016-12-16T09:07:54.804Z,79.79
2016-12-16T09:09:04.335Z,79.88
2016-12-16T09:10:14.121Z,79.69
2016-12-16T09:11:23.341Z,79.6
2016-12-16T09:12:33.110Z,79.69
2016-12-16T09:13:42.977Z,79.6
2016-12-16T09:14:52.141Z,79.6
2016-12-16T09:16:01.935Z,79.6
2016-12-16T09:17:11.820Z,79.79
2016-12-16T09:18:20.982Z,79.69
2016-12-16T09:19:30.785Z,79.69
2016-12-16T09:20:40.713Z,80.07
2016-12-16T09:21:50.216Z,80.07
2016-12-16T09:22:59.717Z,80.17
2016-12-16T09:24:09.593Z,79.79
2016-12-16T09:25:19.075Z,79.6
2016-12-16T09:26:28.898Z,79.69
2016-12-16T09:27:38.370Z,79.6
2016-12-16T09:28:48.182Z,79.41
2016-12-16T09:29:57.680Z,79.88
2016-12-16T09:31:07.468Z,79.79
2016-12-16T09:32:16.993Z,79.98
2016-12-16T09:33:26.869Z,79.6
2016-12-16T09:34:36.692Z,79.88
2016-12-16T09:35:45.932Z,79.41
2016-12-16T09:36:55.119Z,79.6
2016-12-16T09:38:04.976Z,79.41
2016-12-16T09:39:14.771Z,79.6
2016-12-16T09:40:24.282Z,79.88
2016-12-16T09:41:33.862Z,79.69
2016-12-16T09:42:43.348Z,79.41
2016-12-16T09:43:53.135Z,79.6
2016-12-16T09:45:02.639Z,79.64
2016-12-16T09:46:12.155Z,79.74
2016-12-16T09:47:21.999Z,79.64
2016-12-16T09:48:31.813Z,79.64
2016-12-16T09:49:41.664Z,79.26
2016-12-16T09:50:51.229Z,78.98
2016-12-16T09:52:01.114Z,79.07
2016-12-16T09:53:10.912Z,79.26
2016-12-16T09:54:20.110Z,78.98
2016-12-16T09:55:29.919Z,79.17
2016-12-16T09:56:39.713Z,79.26
2016-12-16T09:57:49.495Z,78.59
2016-12-16T09:58:58.961Z,78.69
2016-12-16T10:00:08.265Z,78.79
2016-12-16T10:01:18.053Z,78.5
2016-12-16T10:02:27.229Z,78.5
2016-12-16T10:03:36.803Z,78.41
2016-12-16T10:04:46.623Z,78.79
2016-12-16T10:05:56.269Z,78.41
2016-12-16T10:07:05.430Z,78.59
2016-12-16T10:08:15.285Z,78.79
2016-12-16T10:09:25.090Z,78.69
2016-12-16T10:10:34.891Z,78.79
2016-12-16T10:11:44.687Z,78.59
2016-12-16T10:12:54.162Z,78.59
2016-12-16T10:14:03.977Z,78.69
2016-12-16T10:15:13.972Z,78.5
2016-12-16T10:16:23.436Z,78.59
2016-12-16T10:17:32.948Z,78.69
2016-12-16T10:18:42.469Z,78.69
2016-12-16T10:19:52.341Z,78.69
2016-12-16T10:21:02.135Z,78.59
2016-12-16T10:22:12.101Z,78.69
2016-12-16T10:23:21.630Z,78.59
2016-12-16T10:24:31.246Z,78.79
2016-12-16T10:25:41.076Z,78.69
2016-12-16T10:26:50.911Z,78.5
2016-12-16T10:28:00.743Z,78.69
2016-12-16T10:29:10.622Z,78.41
2016-12-16T10:30:20.182Z,78.69
2016-12-16T10:31:29.696Z,78.59
2016-12-16T10:32:39.515Z,78.69
2016-12-16T10:33:49.001Z,78.22
2016-12-16T10:34:58.696Z,78.69
2016-12-16T10:36:08.505Z,78.69
2016-12-16T10:37:18.310Z,78.59
2016-12-16T10:38:28.114Z,78.41
2016-12-16T10:39:37.635Z,78.03
2016-12-16T10:40:47.167Z,78.13
2016-12-16T10:41:57.006Z,78.13
2016-12-16T10:43:07.035Z,78.59
2016-12-16T10:44:16.584Z,78.69
2016-12-16T10:45:26.369Z,78.03
2016-12-16T10:46:36.025Z,78.22
2016-12-16T10:47:45.890Z,78.31
2016-12-16T10:48:55.735Z,78.31
2016-12-16T10:50:05.525Z,78.31
2016-12-16T10:51:15.372Z,78.13
2016-12-16T10:52:25.154Z,78.59
2016-12-16T10:53:34.699Z,78.41
2016-12-16T10:54:44.503Z,78.59
2016-12-16T10:55:54.012Z,78.5
2016-12-16T10:57:03.190Z,78.03
2016-12-16T10:58:13.032Z,78.03
2016-12-16T10:59:22.849Z,78.13
2016-12-16T11:00:32.361Z,78.41
2016-12-16T11:01:41.863Z,78.22
2016-12-16T11:02:51.375Z,78.22
2016-12-16T11:04:01.280Z,78.22
2016-12-16T11:05:10.985Z,78.03
2016-12-16T11:06:20.205Z,78.22
2016-12-16T11:07:29.398Z,78.13
2016-12-16T11:08:39.277Z,78.03
2016-12-16T11:09:48.799Z,78.13
2016-12-16T11:10:58.601Z,77.94
2016-12-16T11:12:08.393Z,78.13
2016-12-16T11:13:18.237Z,78.22
2016-12-16T11:14:28.198Z,78.22
2016-12-16T11:15:38.054Z,77.94
2016-12-16T11:16:47.856Z,77.94
2016-12-16T11:17:57.148Z,77.75
2016-12-16T11:19:06.940Z,77.75
2016-12-16T11:20:16.442Z,77.84
2016-12-16T11:21:26.404Z,77.84
2016-12-16T11:22:36.233Z,78.03
2016-12-16T11:23:45.714Z,78.41
2016-12-16T11:24:55.315Z,78.5
2016-12-16T11:26:04.873Z,78.22
2016-12-16T11:27:14.683Z,78.31
2016-12-16T11:28:24.647Z,78.03
2016-12-16T11:29:34.483Z,78.31
2016-12-16T11:30:43.663Z,77.75
2016-12-16T11:31:53.165Z,78.41
2016-12-16T11:33:02.363Z,78.41
2016-12-16T11:34:11.945Z,78.31
2016-12-16T11:35:21.439Z,78.31
2016-12-16T11:36:30.978Z,78.41
2016-12-16T11:37:40.525Z,77.78
2016-12-16T11:38:50.309Z,77.97
2016-12-16T11:40:00.095Z,78.07
2016-12-16T11:41:09.577Z,77.88
2016-12-16T11:42:19.099Z,77.5
2016-12-16T11:43:28.925Z,77.59
2016-12-16T11:44:38.526Z,77.5
2016-12-16T11:45:48.335Z,77.5
2016-12-16T11:46:58.130Z,77.4
2016-12-16T11:48:07.308Z,77.31
2016-12-16T11:49:16.798Z,77.31
2016-12-16T11:50:26.606Z,77.31
2016-12-16T11:51:36.396Z,77.4
2016-12-16T11:52:45.924Z,77.69
2016-12-16T11:53:55.090Z,77.4
2016-12-16T11:55:04.913Z,77.78
2016-12-16T11:56:46.673Z,77.5
2016-12-16T11:57:56.462Z,77.4
2016-12-16T11:59:06.036Z,77.31
2016-12-16T12:00:15.868Z,77.78
2016-12-16T12:01:25.733Z,76.93
2016-12-16T12:02:35.565Z,76.93
2016-12-16T12:03:45.354Z,76.93
2016-12-16T12:04:55.204Z,76.93
2016-12-16T12:06:05.007Z,77.5
2016-12-16T12:07:14.795Z,77.69
2016-12-16T12:08:24.589Z,77.69
2016-12-16T12:09:34.088Z,77.69
2016-12-16T12:10:44.039Z,77.31
2016-12-16T12:11:53.522Z,77.88
2016-12-16T12:13:03.331Z,77.69
2016-12-16T12:14:12.524Z,77.4
2016-12-16T12:15:22.310Z,77.31
2016-12-16T12:16:32.109Z,76.84
2016-12-16T12:17:41.903Z,76.74
2016-12-16T12:18:51.450Z,77.03
2016-12-16T12:20:01.269Z,76.93
2016-12-16T12:21:11.103Z,76.93
2016-12-16T12:22:20.907Z,77.31
2016-12-16T12:23:29.788Z,77.12
2016-12-16T12:24:39.597Z,77.03
2016-12-16T12:25:49.126Z,76.65
2016-12-16T12:26:58.975Z,76.74
2016-12-16T12:28:08.791Z,76.55
2016-12-16T12:29:18.576Z,76.46
2016-12-16T12:30:28.048Z,76.17
2016-12-16T12:31:37.939Z,75.98
2016-12-16T12:32:47.510Z,76.17
2016-12-16T12:33:57.293Z,76.08
2016-12-16T12:35:07.084Z,75.45
2016-12-16T12:36:16.884Z,75.93
2016-12-16T12:37:26.051Z,75.55
2016-12-16T12:38:35.910Z,75.55
2016-12-16T12:39:45.733Z,75.64
2016-12-16T12:40:55.562Z,75.26
2016-12-16T12:42:05.138Z,75.84
2016-12-16T12:43:14.950Z,75.36
2016-12-16T12:44:24.767Z,75.64
2016-12-16T12:45:34.583Z,75.64
2016-12-16T12:46:44.377Z,75.64
2016-12-16T12:47:54.193Z,75.64
2016-12-16T12:49:03.677Z,75.64
2016-12-16T12:50:13.585Z,75.64
2016-12-16T12:51:23.106Z,75.55
2016-12-16T12:52:32.611Z,75.45
2016-12-16T12:53:42.427Z,75.84
2016-12-16T12:54:51.633Z,75.74
2016-12-16T12:56:01.238Z,75.55
2016-12-16T12:57:11.068Z,75.17
2016-12-16T12:58:20.961Z,75.07
2016-12-16T12:59:30.138Z,75.26
2016-12-16T13:00:40.094Z,74.69
2016-12-16T13:01:49.583Z,74.79
2016-12-16T13:02:58.784Z,75.36
2016-12-16T13:04:08.277Z,75.17
2016-12-16T13:05:18.196Z,75.17
2016-12-16T13:06:28.007Z,74.98
2016-12-16T13:07:37.826Z,74.69
2016-12-16T13:08:47.664Z,74.98
2016-12-16T13:09:57.146Z,74.69
2016-12-16T13:11:06.354Z,74.51
2016-12-16T13:12:16.174Z,74.98
2016-12-16T13:13:25.992Z,74.69
2016-12-16T13:14:35.941Z,74.6
2016-12-16T13:15:45.771Z,74.6
2016-12-16T13:16:55.289Z,74.51
2016-12-16T13:18:05.087Z,74.41
2016-12-16T13:19:14.296Z,74.41
2016-12-16T13:20:24.104Z,74.51
2016-12-16T13:21:33.932Z,74.6
2016-12-16T13:22:43.163Z,74.13
2016-12-16T13:23:52.992Z,74.13
2016-12-16T13:25:02.498Z,74.32
2016-12-16T13:26:12.320Z,74.32
2016-12-16T13:27:22.156Z,74.22
2016-12-16T13:28:32.001Z,74.32
2016-12-16T13:29:41.479Z,74.51
2016-12-16T13:30:51.032Z,74.51
2016-12-16T13:32:00.844Z,74.22
2016-12-16T13:33:10.630Z,74.22
2016-12-16T13:34:20.429Z,73.94
2016-12-16T13:35:30.234Z,74.03
2016-12-16T13:36:40.018Z,74.32
2016-12-16T13:37:49.503Z,74.03
2016-12-16T13:38:59.004Z,74.03
2016-12-16T13:40:08.837Z,74.03
2016-12-16T13:41:18.623Z,74.51
2016-12-16T13:42:28.470Z,74.22
2016-12-16T13:43:38.296Z,74.13
2016-12-16T13:44:48.248Z,74.51
2016-12-16T13:45:57.736Z,74.51
2016-12-16T13:47:07.385Z,74.88
2016-12-16T13:48:17.227Z,75.07
2016-12-16T13:49:28.943Z,74.98
2016-12-16T13:50:38.629Z,74.69
2016-12-16T13:51:48.569Z,74.79
2016-12-16T13:52:58.167Z,75.07
2016-12-16T13:54:07.456Z,74.98
2016-12-16T13:55:17.000Z,74.79
2016-12-16T13:56:26.490Z,74.41
2016-12-16T13:57:36.342Z,74.51
2016-12-16T13:58:45.853Z,74.98
2016-12-16T13:59:55.707Z,75.07
2016-12-16T14:01:04.899Z,75.17
2016-12-16T14:02:14.773Z,75.26
2016-12-16T14:03:24.339Z,75.17
2016-12-16T14:04:34.212Z,75.07
2016-12-16T14:05:43.439Z,75.36
2016-12-16T14:06:53.291Z,75.26
2016-12-16T14:08:02.515Z,75.26
2016-12-16T14:09:12.352Z,75.36
2016-12-16T14:10:21.949Z,75.17
2016-12-16T14:11:31.448Z,75.26
2016-12-16T14:12:41.475Z,75.26
2016-12-16T14:13:51.012Z,75.64
2016-12-16T14:15:00.829Z,75.17
2016-12-16T14:16:10.739Z,75.51
2016-12-16T14:17:20.342Z,75.32
2016-12-16T14:18:30.145Z,75.7
2016-12-16T14:19:39.782Z,75.7
2016-12-16T14:20:49.747Z,75.32
2016-12-16T14:21:59.241Z,75.89
2016-12-16T14:23:09.152Z,75.7
2016-12-16T14:24:18.983Z,75.79
2016-12-16T14:25:28.931Z,75.51
2016-12-16T14:26:38.886Z,75.51
2016-12-16T14:27:48.562Z,75.98
2016-12-16T14:28:58.457Z,75.89
2016-12-16T14:30:08.333Z,76.36
2016-12-16T14:31:18.486Z,76.08
2016-12-16T14:32:28.155Z,76.17
2016-12-16T14:33:38.462Z,76.65
2016-12-16T14:34:48.212Z,76.36
2016-12-16T14:35:58.103Z,76.46
2016-12-16T14:37:07.636Z,76.55
2016-12-16T14:38:17.601Z,76.55
2016-12-16T14:39:26.825Z,77.03
2016-12-16T14:40:36.621Z,77.12
2016-12-16T14:41:46.153Z,76.84
2016-12-16T14:42:55.944Z,76.89
2016-12-16T14:44:05.731Z,76.84
2016-12-16T14:45:15.555Z,76.89
2016-12-16T14:46:25.070Z,76.99
2016-12-16T14:47:34.624Z,76.8
2016-12-16T14:48:44.565Z,77.46
2016-12-16T14:49:54.421Z,77.75
2016-12-16T14:51:03.941Z,77.56
2016-12-16T14:52:13.797Z,77.56
2016-12-16T14:53:25.499Z,77.65
2016-12-16T14:54:35.839Z,77.84
2016-12-16T14:55:46.293Z,77.56
2016-12-16T14:56:56.533Z,77.37
2016-12-16T14:58:05.419Z,77.56
2016-12-16T14:59:14.904Z,77.75
2016-12-16T15:00:24.811Z,77.46